Time;durP1;ratioP1;P1;durP2;ratioP2;P2;SDS_P1;SDS_P2;PMS_P1;PMS_P2;Temp;Humidity;BMP_temperature;BMP_pressure;BME280_temperature;BME280_humidity;BME280_pressure;Samples;Min_cycle;Max_cycle;Signal;HPM_P1;HPM_P2
2021/07/28 00:01:36;;;;;;;20.27;7.70;;;;;;;22.64;100.00;95069.03;10506850;28;20032;-72
2021/07/28 00:06:37;;;;;;;23.80;6.97;;;;;;;22.73;100.00;95070.88;10524794;28;20055;-73
2021/07/28 00:11:37;;;;;;;15.40;7.20;;;;;;;22.57;100.00;95070.78;10523532;28;20040;-73
2021/07/28 00:16:37;;;;;;;21.40;7.37;;;;;;;22.58;100.00;95062.22;10524334;28;20020;-73
2021/07/28 00:27:00;;;;;;;22.25;8.80;;;;;;;22.62;97.54;95071.34;10487371;28;1105657;-73
2021/07/28 00:32:00;;;;;;;18.95;7.15;;;;;;;22.63;100.00;95064.72;10525776;28;20036;-73
2021/07/28 00:37:00;;;;;;;23.60;8.03;;;;;;;22.61;100.00;95064.25;10526560;28;20024;-72
2021/07/28 00:42:01;;;;;;;18.30;7.03;;;;;;;22.57;100.00;95059.81;10525953;28;20039;-72
2021/07/28 00:47:01;;;;;;;22.90;7.05;;;;;;;22.56;98.66;95064.47;10526213;28;20020;-73
2021/07/28 00:52:02;;;;;;;14.80;7.15;;;;;;;22.63;97.49;95061.19;10525385;28;20380;-72
2021/07/28 00:57:03;;;;;;;15.60;8.15;;;;;;;22.58;98.48;95056.72;10526010;28;20027;-72
2021/07/28 01:02:04;;;;;;;24.10;7.57;;;;;;;22.51;100.00;95054.56;10525540;28;20031;-72
2021/07/28 01:07:04;;;;;;;20.85;9.32;;;;;;;22.47;100.00;95050.13;10525371;28;20031;-72
2021/07/28 01:12:05;;;;;;;15.80;7.32;;;;;;;22.39;100.00;95042.81;10525618;28;20020;-72
2021/07/28 01:17:06;;;;;;;20.10;7.68;;;;;;;22.04;100.00;95045.91;10525379;28;20058;-72
2021/07/28 01:22:06;;;;;;;18.65;8.88;;;;;;;21.99;100.00;95038.72;10525319;28;20111;-72
2021/07/28 01:27:07;;;;;;;21.65;9.13;;;;;;;21.99;100.00;95039.53;10531189;28;20052;-72
2021/07/28 01:32:08;;;;;;;23.85;10.18;;;;;;;22.02;100.00;95041.56;10531995;28;20023;-72
2021/07/28 01:37:12;;;;;;;14.60;7.73;;;;;;;22.01;100.00;95031.75;10532236;28;20020;-72
2021/07/28 01:42:12;;;;;;;16.20;7.65;;;;;;;21.94;100.00;95037.00;10532287;28;20277;-72
2021/07/28 01:47:12;;;;;;;21.77;9.97;;;;;;;21.76;100.00;95047.31;10532218;28;20024;-73
2021/07/28 01:52:13;;;;;;;15.73;7.83;;;;;;;21.75;100.00;95042.19;10531396;28;20368;-73
2021/07/28 01:57:13;;;;;;;23.97;8.60;;;;;;;21.71;100.00;95042.03;10531614;28;20353;-74
2021/07/28 02:02:13;;;;;;;21.20;8.67;;;;;;;21.68;100.00;95051.75;10530993;28;20103;-73
2021/07/28 02:07:14;;;;;;;15.83;8.23;;;;;;;21.55;100.00;95043.84;10530891;28;20282;-73
2021/07/28 02:12:14;;;;;;;15.43;9.17;;;;;;;21.24;100.00;95039.53;10530997;28;20459;-73
2021/07/28 02:17:15;;;;;;;15.27;7.43;;;;;;;21.11;100.00;95030.47;10530503;28;20170;-74
2021/07/28 02:22:15;;;;;;;16.73;8.02;;;;;;;21.24;100.00;95039.53;10512488;28;20127;-73
2021/07/28 02:27:16;;;;;;;18.97;8.57;;;;;;;21.20;100.00;95031.22;10529868;28;20040;-73
2021/07/28 02:32:16;;;;;;;19.07;8.60;;;;;;;21.14;100.00;95040.75;10530136;28;20028;-73
2021/07/28 02:37:16;;;;;;;14.60;8.25;;;;;;;21.22;100.00;95039.88;10527151;28;20300;-73
2021/07/28 02:42:17;;;;;;;19.43;8.40;;;;;;;21.09;100.00;95043.69;10512073;28;20088;-73
2021/07/28 02:47:17;;;;;;;22.13;8.43;;;;;;;21.05;100.00;95042.75;10541982;28;20150;-72
2021/07/28 02:52:18;;;;;;;18.33;8.97;;;;;;;20.82;100.00;95043.88;10528918;28;20293;-73
2021/07/28 02:57:18;;;;;;;18.23;8.80;;;;;;;20.80;100.00;95051.56;10528578;28;20360;-73
2021/07/28 03:02:18;;;;;;;22.53;9.30;;;;;;;20.72;100.00;95038.78;10531633;28;20034;-73
2021/07/28 03:07:19;;;;;;;14.60;9.03;;;;;;;20.71;100.00;95050.03;10538381;28;20031;-74
2021/07/28 03:12:19;;;;;;;14.03;8.87;;;;;;;20.69;100.00;95058.56;10509938;28;20028;-73
2021/07/28 03:17:19;;;;;;;18.77;9.43;;;;;;;20.58;100.00;95052.66;10515782;28;20077;-74
2021/07/28 03:22:20;;;;;;;16.90;9.40;;;;;;;20.52;100.00;95056.69;10555153;28;20273;-74
2021/07/28 03:27:20;;;;;;;19.27;8.65;;;;;;;20.50;100.00;95058.97;10586545;27;20051;-74
2021/07/28 03:32:20;;;;;;;16.30;9.23;;;;;;;20.61;100.00;95054.72;10569461;28;20042;-74
2021/07/28 03:37:21;;;;;;;19.33;9.80;;;;;;;20.68;100.00;95059.69;10590774;27;20023;-74
2021/07/28 03:42:22;;;;;;;25.35;11.75;;;;;;;20.62;100.00;95055.50;10567963;27;20146;-73
2021/07/28 03:47:22;;;;;;;37.43;10.30;;;;;;;20.69;100.00;95061.28;10550471;28;20041;-73
2021/07/28 03:52:23;;;;;;;22.47;10.40;;;;;;;20.75;100.00;95056.44;10550630;28;20043;-73
2021/07/28 03:57:23;;;;;;;30.47;9.67;;;;;;;20.74;100.00;95054.84;10569368;28;20277;-73
2021/07/28 04:02:23;;;;;;;19.73;10.07;;;;;;;20.85;100.00;95057.97;10568772;28;20115;-73
2021/07/28 04:07:24;;;;;;;22.30;10.17;;;;;;;20.87;100.00;95058.47;10568891;28;20032;-73
2021/07/28 04:12:24;;;;;;;23.38;9.75;;;;;;;20.99;100.00;95064.81;10584624;28;20035;-73
2021/07/28 04:17:24;;;;;;;32.67;10.43;;;;;;;21.14;100.00;95068.88;10607418;27;20466;-72
2021/07/28 04:22:25;;;;;;;30.30;10.50;;;;;;;21.34;100.00;95074.69;10581187;28;20108;-73
2021/07/28 04:27:29;;;;;;;26.88;10.07;;;;;;;21.40;100.00;95069.81;10578864;28;20059;-74
2021/07/28 04:32:30;;;;;;;20.52;9.73;;;;;;;21.61;100.00;95056.94;10582493;28;20505;-73
2021/07/28 04:37:30;;;;;;;34.13;12.97;;;;;;;21.84;100.00;95062.84;10593977;28;20034;-73
2021/07/28 04:42:31;;;;;;;20.97;9.97;;;;;;;21.99;100.00;95064.16;10610037;27;20023;-73
2021/07/28 04:47:33;;;;;;;17.77;9.73;;;;;;;22.27;100.00;95065.44;10577991;28;20407;-74
2021/07/28 04:52:33;;;;;;;23.42;10.65;;;;;;;22.49;100.00;95056.84;10562413;27;20111;-73
2021/07/28 04:57:33;;;;;;;22.63;9.60;;;;;;;22.93;100.00;95060.94;10577037;28;20085;-73
2021/07/28 05:02:34;;;;;;;32.50;12.03;;;;;;;23.35;100.00;95057.91;10591020;27;20042;-75
2021/07/28 05:07:34;;;;;;;26.88;9.73;;;;;;;23.82;100.00;95054.53;10585259;27;20866;-74
2021/07/28 05:12:35;;;;;;;21.63;8.83;;;;;;;24.22;100.00;95056.41;10575449;28;20475;-73
2021/07/28 05:17:35;;;;;;;29.53;8.80;;;;;;;24.75;98.02;95049.84;10576029;28;20077;-73
2021/07/28 05:22:35;;;;;;;18.70;9.20;;;;;;;25.02;96.60;95045.38;10576148;28;20102;-73
2021/07/28 05:27:36;;;;;;;24.37;9.43;;;;;;;25.50;91.09;95045.25;10575713;28;20059;-74
2021/07/28 05:32:36;;;;;;;18.83;8.60;;;;;;;25.32;90.38;95047.63;10575527;28;20063;-73
2021/07/28 05:37:37;;;;;;;14.80;8.47;;;;;;;25.97;88.56;95040.66;10575171;28;20104;-74
2021/07/28 05:42:38;;;;;;;20.50;9.82;;;;;;;26.45;82.05;95043.09;10575189;28;20031;-73
2021/07/28 05:47:38;;;;;;;23.88;9.18;;;;;;;26.75;79.60;95037.72;10574450;28;20045;-74
2021/07/28 05:52:39;;;;;;;22.52;8.07;;;;;;;27.08;76.67;95050.00;10574780;28;20056;-74
2021/07/28 05:57:40;;;;;;;15.20;7.93;;;;;;;27.98;72.34;95036.59;10574752;28;20023;-74
2021/07/28 06:02:40;;;;;;;17.88;8.55;;;;;;;28.56;67.58;95031.63;10574440;28;20028;-74
2021/07/28 06:07:41;;;;;;;23.60;8.97;;;;;;;29.38;62.66;95027.88;10573694;28;20032;-74
2021/07/28 06:12:41;;;;;;;20.47;7.83;;;;;;;29.53;59.70;95037.03;10573448;28;20019;-74
2021/07/28 06:17:42;;;;;;;24.48;7.80;;;;;;;30.36;56.54;95032.53;10573266;28;20027;-74
2021/07/28 06:22:42;;;;;;;21.67;8.50;;;;;;;30.27;55.13;95027.38;10573063;28;20031;-74
2021/07/28 06:27:45;;;;;;;14.98;8.05;;;;;;;30.99;54.93;95034.94;10573081;28;20297;-74
2021/07/28 06:32:45;;;;;;;21.38;6.68;;;;;;;32.30;49.13;95033.34;10554719;28;20027;-74
2021/07/28 06:37:46;;;;;;;19.73;8.80;;;;;;;32.94;46.43;95034.06;10572756;28;20032;-74
2021/07/28 06:42:46;;;;;;;15.93;7.50;;;;;;;33.31;43.70;95024.19;10572905;28;20034;-74
2021/07/28 06:47:46;;;;;;;15.73;7.07;;;;;;;33.78;42.63;95035.59;10554327;28;20296;-74
2021/07/28 06:52:47;;;;;;;24.07;7.67;;;;;;;34.34;40.33;95038.09;10572582;28;20100;-74
2021/07/28 06:57:47;;;;;;;14.20;7.78;;;;;;;35.08;39.24;95025.34;10575860;28;20024;-74
2021/07/28 07:02:48;;;;;;;16.40;7.07;;;;;;;35.52;38.00;95026.16;10576040;28;20031;-74
2021/07/28 07:07:50;;;;;;;16.07;7.17;;;;;;;36.01;37.31;95024.81;10575580;28;20027;-74
2021/07/28 07:12:50;;;;;;;23.33;6.75;;;;;;;36.86;35.95;95014.91;10575220;28;20023;-74
2021/07/28 07:17:52;;;;;;;20.67;7.80;;;;;;;37.19;35.41;95017.63;10574890;28;20024;-73
2021/07/28 07:22:53;;;;;;;14.73;6.63;;;;;;;37.15;34.09;95009.34;10574584;28;20066;-74
2021/07/28 07:27:53;;;;;;;21.23;6.53;;;;;;;37.64;32.74;95008.44;10574390;28;20147;-73
2021/07/28 07:38:13;;;;;;;21.05;6.95;;;;;;;38.85;31.75;95001.59;10574496;28;20023;-74
2021/07/28 07:43:13;;;;;;;18.33;6.88;;;;;;;39.00;31.06;94996.28;10574111;28;20027;-74
2021/07/28 07:48:14;;;;;;;17.93;6.60;;;;;;;39.93;29.64;95004.25;10574115;28;20042;-74
2021/07/28 07:53:14;;;;;;;18.03;6.30;;;;;;;40.70;28.56;95002.13;10573929;28;20134;-74
2021/07/28 07:58:14;;;;;;;12.90;6.60;;;;;;;39.35;28.79;94999.13;10570278;28;20028;-74
2021/07/28 08:03:15;;;;;;;18.37;5.67;;;;;;;39.57;29.36;94996.31;10569733;28;20031;-74
2021/07/28 08:08:15;;;;;;;13.95;6.20;;;;;;;40.86;28.10;94989.78;10570099;28;20032;-74
2021/07/28 08:13:16;;;;;;;18.37;6.03;;;;;;;41.34;27.42;94979.69;10569644;28;20023;-74
2021/07/28 08:18:17;;;;;;;14.05;5.93;;;;;;;41.00;27.10;94984.38;10551532;28;20019;-74
2021/07/28 08:23:17;;;;;;;10.40;5.38;;;;;;;41.59;27.56;94972.16;10569495;28;20043;-74
2021/07/28 08:28:18;;;;;;;23.70;6.10;;;;;;;42.46;26.09;94963.31;10569685;28;20445;-74
2021/07/28 08:33:18;;;;;;;15.30;5.17;;;;;;;42.98;24.93;94957.56;10570375;28;20432;-74
2021/07/28 08:38:21;;;;;;;10.93;5.43;;;;;;;43.11;25.00;94965.00;10578128;28;20031;-74
2021/07/28 08:43:27;;;;;;;13.75;4.68;;;;;;;43.21;24.78;94958.03;10577563;28;20035;-74
2021/07/28 08:48:31;;;;;;;20.70;6.13;;;;;;;43.02;24.69;94963.00;10577469;28;20020;-74
2021/07/28 08:53:31;;;;;;;18.30;5.30;;;;;;;44.09;24.26;94960.69;10576859;28;20097;-74
2021/07/28 08:58:32;;;;;;;21.77;5.78;;;;;;;44.32;23.50;94956.19;10558464;28;20555;-74
2021/07/28 09:03:32;;;;;;;18.87;5.67;;;;;;;44.35;24.04;94950.31;10576668;28;20073;-74
2021/07/28 09:08:35;;;;;;;18.07;6.20;;;;;;;44.89;22.73;94943.63;10577008;28;20482;-74
2021/07/28 09:13:40;;;;;;;17.10;4.97;;;;;;;45.80;21.79;94956.03;10575972;28;20099;-74
2021/07/28 09:18:44;;;;;;;16.50;5.32;;;;;;;45.85;21.58;94949.66;10576282;28;20026;-74
2021/07/28 09:23:47;;;;;;;16.58;5.13;;;;;;;45.31;21.65;94936.66;10575907;28;20043;-74
2021/07/28 09:29:01;;;;;;;18.17;5.50;;;;;;;45.31;21.87;94939.50;10575805;28;20024;-74
2021/07/28 09:34:28;;;;;;;18.15;4.20;;;;;;;46.09;20.34;94928.69;10575661;28;20011;-74
2021/07/28 09:39:36;;;;;;;16.02;4.72;;;;;;;46.12;20.87;94924.81;10574682;28;20529;-74
2021/07/28 09:44:40;;;;;;;12.38;4.53;;;;;;;47.02;19.62;94924.66;10574672;28;20110;-74
2021/07/28 09:49:46;;;;;;;11.05;4.55;;;;;;;45.64;21.45;94912.00;10575560;28;20028;-74
2021/07/28 09:54:48;;;;;;;17.55;4.80;;;;;;;45.18;20.74;94911.50;10557924;28;20019;-74
2021/07/28 09:59:52;;;;;;;18.60;5.22;;;;;;;44.66;21.64;94903.63;10578048;28;20475;-74
2021/07/28 10:04:54;;;;;;;19.77;4.47;;;;;;;46.44;19.95;94900.00;10577825;28;20028;-74
2021/07/28 10:10:10;;;;;;;20.55;4.72;;;;;;;47.24;19.06;94896.25;10579615;28;20031;-74
2021/07/28 10:15:11;;;;;;;12.57;4.22;;;;;;;47.61;18.54;94890.94;10577266;28;20030;-74
2021/07/28 10:20:13;;;;;;;16.05;4.00;;;;;;;47.77;18.31;94893.03;10577512;28;20502;-74
2021/07/28 10:25:15;;;;;;;12.52;3.97;;;;;;;47.12;18.13;94886.13;10577097;28;20047;-74
2021/07/28 10:30:20;;;;;;;18.33;5.38;;;;;;;48.25;17.87;94885.53;10577123;28;20106;-75
2021/07/28 10:35:29;;;;;;;13.00;3.97;;;;;;;46.34;19.19;94873.06;10576783;28;20019;-74
2021/07/28 10:40:31;;;;;;;16.88;4.13;;;;;;;45.53;19.89;94879.38;10576778;28;20020;-74
2021/07/28 10:45:54;;;;;;;15.07;4.47;;;;;;;45.22;20.04;94871.56;10576496;28;20164;-74
2021/07/28 10:50:54;;;;;;;11.95;4.05;;;;;;;47.24;19.70;94858.50;10576488;28;20028;-74
2021/07/28 10:56:09;;;;;;;15.43;4.70;;;;;;;47.91;19.12;94860.66;10572974;28;20484;-75
2021/07/28 11:01:09;;;;;;;17.27;4.63;;;;;;;46.92;18.59;94861.50;10572409;28;20051;-74
2021/07/28 11:06:18;;;;;;;17.43;4.50;;;;;;;47.46;18.99;94845.59;10572236;28;20108;-75
2021/07/28 11:11:20;;;;;;;15.82;4.22;;;;;;;47.75;18.50;94856.50;10571638;28;20114;-73
2021/07/28 11:16:21;;;;;;;21.20;5.00;;;;;;;43.62;21.68;94847.16;10571848;28;20470;-73
2021/07/28 11:21:26;;;;;;;14.73;5.07;;;;;;;41.59;24.52;94852.91;10571391;28;20027;-74
2021/07/28 11:26:36;;;;;;;18.48;5.32;;;;;;;40.37;25.25;94842.09;10571364;28;20039;-74
2021/07/28 11:31:41;;;;;;;19.48;5.40;;;;;;;40.10;25.23;94843.59;10571357;28;20028;-74
2021/07/28 11:36:44;;;;;;;23.20;5.43;;;;;;;39.48;24.52;94840.31;10570531;28;20020;-74
2021/07/28 11:41:49;;;;;;;20.13;5.90;;;;;;;38.87;26.26;94828.50;10570553;28;20027;-74
2021/07/28 11:46:54;;;;;;;19.58;4.63;;;;;;;38.41;25.26;94820.47;10570562;28;20513;-74
2021/07/28 11:51:59;;;;;;;20.90;5.20;;;;;;;37.82;25.99;94820.00;10570342;28;20027;-74
2021/07/28 11:57:00;;;;;;;22.77;6.07;;;;;;;37.36;26.98;94805.41;10570294;28;20020;-74
2021/07/28 12:02:03;;;;;;;22.00;5.22;;;;;;;37.34;24.55;94802.25;10569945;28;20124;-74
2021/07/28 12:07:12;;;;;;;27.85;4.60;;;;;;;37.33;24.16;94800.66;10569832;28;20028;-74
2021/07/28 12:12:19;;;;;;;15.48;5.80;;;;;;;37.20;26.33;94793.00;10570326;28;20047;-74
2021/07/28 12:17:20;;;;;;;12.85;5.00;;;;;;;36.55;26.17;94789.22;10568946;28;20028;-74
2021/07/28 12:22:28;;;;;;;20.48;7.35;;;;;;;37.10;26.60;94777.28;10569960;28;20056;-74
2021/07/28 12:27:29;;;;;;;25.38;6.07;;;;;;;37.43;26.15;94772.31;10569084;28;20048;-74
2021/07/28 12:32:58;;;;;;;24.13;5.65;;;;;;;37.76;25.61;94769.28;10569254;28;20387;-72
2021/07/28 12:38:11;;;;;;;22.73;4.85;;;;;;;37.69;25.80;94765.91;10568511;28;20020;-73
2021/07/28 12:43:12;;;;;;;19.98;5.38;;;;;;;37.53;26.51;94770.41;10569095;28;20023;-73
2021/07/28 12:48:12;;;;;;;27.52;5.43;;;;;;;37.61;24.88;94766.13;10568994;28;20031;-73
2021/07/28 12:53:14;;;;;;;20.25;5.28;;;;;;;37.59;26.51;94762.97;10568793;28;20032;-73
2021/07/28 12:58:14;;;;;;;11.15;4.38;;;;;;;37.49;27.07;94769.72;10568820;28;20028;-73
2021/07/28 13:03:17;;;;;;;16.17;5.00;;;;;;;37.02;26.18;94759.13;10568445;28;20398;-74
2021/07/28 13:08:17;;;;;;;22.33;5.30;;;;;;;36.91;27.29;94753.81;10566711;28;20027;-74
2021/07/28 13:13:18;;;;;;;21.63;5.40;;;;;;;36.59;25.99;94758.34;10568249;28;20508;-74
2021/07/28 13:18:18;;;;;;;20.55;5.20;;;;;;;35.92;26.52;94754.88;10567767;28;20430;-74
2021/07/28 13:23:19;;;;;;;25.13;4.93;;;;;;;35.51;27.00;94739.47;10557322;28;20039;-74
2021/07/28 13:28:19;;;;;;;29.33;5.93;;;;;;;35.42;27.66;94730.91;10575873;28;20546;-74
2021/07/28 13:33:19;;;;;;;33.07;5.60;;;;;;;35.37;27.78;94726.59;10575447;28;20027;-74
2021/07/28 13:38:20;;;;;;;20.63;5.37;;;;;;;35.27;27.36;94722.03;10575574;28;20043;-74
2021/07/28 13:43:20;;;;;;;19.37;5.20;;;;;;;35.15;27.28;94729.13;10574819;28;20032;-74
2021/07/28 13:48:20;;;;;;;25.90;5.37;;;;;;;34.90;27.64;94738.03;10574399;28;20513;-74
2021/07/28 13:53:21;;;;;;;24.37;5.17;;;;;;;34.77;28.76;94742.69;10574586;28;20106;-74
2021/07/28 13:58:21;;;;;;;21.27;5.53;;;;;;;34.71;29.56;94742.41;10574935;28;20873;-74
2021/07/28 14:03:21;;;;;;;19.10;5.73;;;;;;;34.51;29.87;94737.63;10573550;28;20023;-74
2021/07/28 14:08:22;;;;;;;16.58;5.85;;;;;;;34.42;30.47;94748.56;10572987;28;20032;-74
2021/07/28 14:13:22;;;;;;;16.27;6.00;;;;;;;34.23;32.77;94753.66;10572757;28;20023;-73
2021/07/28 14:18:23;;;;;;;25.77;6.93;;;;;;;33.90;34.09;94761.03;10571894;28;20023;-73
2021/07/28 14:23:23;;;;;;;19.00;7.20;;;;;;;33.75;33.45;94763.22;10571934;28;20032;-73
2021/07/28 14:28:23;;;;;;;20.53;7.90;;;;;;;33.95;33.71;94763.34;10572003;28;20022;-73
2021/07/28 14:33:24;;;;;;;24.90;6.97;;;;;;;34.14;32.73;94741.50;10569530;28;20352;-73
2021/07/28 14:38:24;;;;;;;28.37;6.13;;;;;;;34.37;25.08;94715.56;10569371;28;20270;-75
2021/07/28 14:43:25;;;;;;;33.07;5.33;;;;;;;34.71;22.95;94690.13;10570328;28;20027;-74
2021/07/28 14:48:25;;;;;;;34.33;4.50;;;;;;;35.02;21.27;94684.28;10569633;28;20138;-74
2021/07/28 14:53:25;;;;;;;21.43;4.63;;;;;;;34.92;20.46;94686.09;10570079;28;20028;-74
2021/07/28 14:58:26;;;;;;;26.10;4.93;;;;;;;34.93;22.13;94686.91;10570605;28;20096;-74
2021/07/28 15:03:26;;;;;;;31.47;5.30;;;;;;;34.94;21.47;94679.31;10570536;28;20028;-74
2021/07/28 15:08:27;;;;;;;26.00;5.43;;;;;;;34.75;21.39;94688.06;10569928;28;20028;-74
2021/07/28 15:13:27;;;;;;;30.35;5.32;;;;;;;34.66;21.82;94675.91;10570120;28;20027;-74
2021/07/28 15:18:28;;;;;;;22.50;4.35;;;;;;;34.60;21.44;94672.84;10570036;28;20451;-74
2021/07/28 15:23:31;;;;;;;16.27;4.57;;;;;;;34.52;21.50;94669.41;10564586;28;20048;-74
2021/07/28 15:28:31;;;;;;;26.63;5.38;;;;;;;34.49;21.58;94664.69;10527529;28;20513;-74
2021/07/28 15:33:33;;;;;;;31.38;5.50;;;;;;;34.50;21.94;94666.25;10527344;28;20027;-74
2021/07/28 15:38:59;;;;;;;21.85;4.68;;;;;;;34.45;22.43;94665.97;10526981;28;20036;-74
2021/07/28 15:44:00;;;;;;;36.80;6.20;;;;;;;34.44;21.69;94664.41;10526532;28;20028;-74
2021/07/28 15:49:01;;;;;;;23.65;5.88;;;;;;;34.34;22.03;94669.78;10508489;28;20032;-74
2021/07/28 15:54:03;;;;;;;28.75;4.65;;;;;;;34.27;22.00;94663.53;10526602;28;20024;-74
2021/07/28 15:59:04;;;;;;;36.38;4.90;;;;;;;34.20;21.99;94665.25;10527063;28;20016;-74
2021/07/28 16:04:05;;;;;;;37.70;5.18;;;;;;;34.07;23.91;94664.31;10525919;28;20020;-74
2021/07/28 16:09:06;;;;;;;33.15;6.70;;;;;;;33.98;23.14;94656.53;10525532;28;20028;-74
2021/07/28 16:14:37;;;;;;;29.33;5.83;;;;;;;33.93;23.70;94662.59;10525717;28;20468;-74
2021/07/28 16:19:38;;;;;;;24.77;5.90;;;;;;;33.72;24.76;94666.53;10525461;28;20028;-74
2021/07/28 16:24:38;;;;;;;32.72;6.68;;;;;;;33.64;22.62;94668.66;10539969;28;20450;-74
2021/07/28 16:29:39;;;;;;;31.70;5.90;;;;;;;33.58;23.00;94666.78;10567162;28;20027;-74
2021/07/28 16:34:39;;;;;;;30.70;6.17;;;;;;;33.50;24.03;94666.13;10549326;28;20042;-74
2021/07/28 16:39:39;;;;;;;31.33;6.13;;;;;;;33.42;25.28;94664.66;10567698;28;20490;-74
2021/07/28 16:44:40;;;;;;;29.97;5.57;;;;;;;33.28;27.43;94666.50;10567155;28;20035;-74
2021/07/28 16:49:40;;;;;;;27.27;6.33;;;;;;;33.16;27.83;94678.19;10567664;28;20479;-74
2021/07/28 16:54:40;;;;;;;21.90;6.10;;;;;;;33.01;27.96;94678.38;10569421;28;20394;-74
2021/07/28 16:59:41;;;;;;;24.93;5.87;;;;;;;32.84;29.30;94671.88;10577051;28;20493;-74
2021/07/28 17:04:41;;;;;;;29.17;7.03;;;;;;;32.69;32.28;94676.06;10576193;28;20039;-74
2021/07/28 17:09:42;;;;;;;40.55;7.07;;;;;;;32.32;33.45;94683.25;10576171;28;20047;-74
2021/07/28 17:14:42;;;;;;;29.52;5.78;;;;;;;31.78;33.76;94692.97;10576610;28;20084;-74
2021/07/28 17:19:43;;;;;;;29.60;7.07;;;;;;;31.40;34.64;94692.09;10575979;28;20849;-74
2021/07/28 17:24:43;;;;;;;27.08;5.82;;;;;;;30.90;34.58;94696.00;10575733;28;20043;-75
2021/07/28 17:29:44;;;;;;;34.67;6.60;;;;;;;30.63;34.79;94696.53;10575956;28;20024;-74
2021/07/28 17:34:46;;;;;;;35.87;7.97;;;;;;;30.47;34.43;94689.47;10608541;27;20019;-74
2021/07/28 17:39:47;;;;;;;33.05;7.53;;;;;;;30.44;35.36;94706.94;10617881;27;20029;-74
2021/07/28 17:44:47;;;;;;;31.80;5.87;;;;;;;30.31;36.88;94708.56;10617711;27;20042;-74
2021/07/28 17:49:47;;;;;;;40.60;7.50;;;;;;;30.14;36.09;94719.28;10545317;27;20406;-74
2021/07/28 17:54:48;;;;;;;37.17;7.47;;;;;;;29.97;36.57;94715.38;10532702;28;20050;-74
2021/07/28 17:59:48;;;;;;;32.57;7.80;;;;;;;29.77;35.51;94717.75;10531391;28;20107;-73
2021/07/28 18:04:51;;;;;;;27.75;6.72;;;;;;;29.65;36.22;94716.19;10530155;28;20032;-75
2021/07/28 18:09:54;;;;;;;34.45;7.22;;;;;;;29.56;37.04;94718.56;10530399;28;20024;-74
2021/07/28 18:14:55;;;;;;;37.85;7.15;;;;;;;29.43;35.29;94725.69;10530754;28;20012;-73
2021/07/28 18:19:55;;;;;;;34.55;6.75;;;;;;;29.19;35.20;94725.25;10529731;28;20028;-73
2021/07/28 18:24:56;;;;;;;33.27;6.60;;;;;;;28.98;35.87;94737.06;10529462;28;20046;-74
2021/07/28 18:29:57;;;;;;;27.02;6.38;;;;;;;28.81;36.51;94746.91;10530141;28;20023;-74
2021/07/28 18:34:57;;;;;;;32.83;6.70;;;;;;;28.73;36.46;94740.59;10529632;28;20106;-74
2021/07/28 18:39:58;;;;;;;38.13;6.27;;;;;;;28.54;37.05;94749.97;10529362;28;20031;-75
2021/07/28 18:44:58;;;;;;;37.38;7.85;;;;;;;28.58;37.33;94755.50;10529093;28;20032;-75
2021/07/28 18:49:58;;;;;;;29.97;8.20;;;;;;;28.45;37.84;94758.63;10528747;28;20111;-75
2021/07/28 18:54:59;;;;;;;32.60;8.67;;;;;;;28.37;37.30;94768.06;10531361;27;20277;-74
2021/07/28 18:59:59;;;;;;;19.93;6.90;;;;;;;28.27;38.02;94766.84;10571441;28;20039;-74
2021/07/28 19:05:00;;;;;;;33.93;8.40;;;;;;;28.16;37.96;94771.50;10571024;28;20040;-73
2021/07/28 19:10:01;;;;;;;32.92;6.90;;;;;;;28.14;38.16;94776.63;10570493;28;20273;-73
2021/07/28 19:15:02;;;;;;;41.50;9.13;;;;;;;28.06;38.66;94772.22;10570918;28;20104;-73
2021/07/28 19:20:02;;;;;;;31.10;8.15;;;;;;;28.04;39.12;94780.91;10569660;28;21144;-73
2021/07/28 19:25:03;;;;;;;35.95;7.38;;;;;;;27.87;39.77;94781.56;10569957;28;20080;-73
2021/07/28 19:30:04;;;;;;;31.70;7.15;;;;;;;27.65;40.90;94781.38;10569962;28;20019;-73
2021/07/28 19:35:05;;;;;;;34.13;7.45;;;;;;;27.57;40.43;94780.56;10561895;28;20050;-74
2021/07/28 19:40:06;;;;;;;29.08;7.50;;;;;;;27.54;41.14;94788.78;10527376;28;20134;-73
2021/07/28 19:45:07;;;;;;;25.92;7.05;;;;;;;27.48;40.07;94793.06;10527547;28;20035;-73
2021/07/28 19:50:08;;;;;;;26.50;6.70;;;;;;;27.47;42.19;94784.00;10540375;28;20035;-73
2021/07/28 19:55:09;;;;;;;31.13;7.57;;;;;;;27.40;42.06;94787.47;10568761;28;20024;-73
2021/07/28 20:00:14;;;;;;;30.73;9.23;;;;;;;27.37;44.08;94784.69;10569466;28;20028;-73
2021/07/28 20:05:16;;;;;;;36.80;7.93;;;;;;;27.35;44.10;94784.25;10568300;28;20444;-74
2021/07/28 20:10:17;;;;;;;35.17;7.93;;;;;;;27.23;41.46;94779.81;10581260;28;20491;-74
2021/07/28 20:15:20;;;;;;;23.20;6.82;;;;;;;27.18;42.58;94774.63;10590984;27;20042;-74
2021/07/28 20:20:20;;;;;;;36.50;6.72;;;;;;;26.94;42.16;94794.09;10610953;27;20135;-74
2021/07/28 20:25:22;;;;;;;22.65;6.80;;;;;;;26.81;42.36;94772.69;10595508;27;20521;-73
2021/07/28 20:30:22;;;;;;;36.13;8.32;;;;;;;26.65;42.65;94776.41;10552115;28;20019;-73
2021/07/28 20:35:22;;;;;;;36.33;7.83;;;;;;;26.69;42.45;94777.25;10588581;27;20024;-74
2021/07/28 20:40:25;;;;;;;16.73;5.85;;;;;;;26.65;43.13;94786.63;10563008;28;20296;-73
2021/07/28 20:45:27;;;;;;;20.13;5.70;;;;;;;26.62;44.05;94779.91;10601466;27;20028;-74
2021/07/28 20:50:27;;;;;;;30.40;5.90;;;;;;;26.49;44.52;94778.59;10576054;28;20039;-74
2021/07/28 20:55:27;;;;;;;30.27;6.63;;;;;;;26.42;44.88;94776.53;10575664;28;20402;-73
2021/07/28 21:00:28;;;;;;;20.57;4.90;;;;;;;26.40;45.22;94784.34;10569335;27;20139;-73
2021/07/28 21:05:28;;;;;;;25.07;6.63;;;;;;;26.40;45.02;94771.38;10568190;28;20062;-74
2021/07/28 21:10:28;;;;;;;21.95;6.53;;;;;;;26.47;44.04;94783.66;10574356;28;20075;-74
2021/07/28 21:15:29;;;;;;;21.80;5.90;;;;;;;26.49;45.33;94781.34;10555722;28;20015;-74
2021/07/28 21:20:29;;;;;;;22.00;7.07;;;;;;;26.55;46.10;94783.38;10575444;28;20027;-74
2021/07/28 21:25:30;;;;;;;19.00;6.73;;;;;;;26.39;45.88;94788.31;10561551;28;20080;-75
2021/07/28 21:30:30;;;;;;;27.15;6.82;;;;;;;26.41;46.39;94797.75;10533087;28;20028;-74
2021/07/28 21:35:30;;;;;;;28.43;8.13;;;;;;;26.46;47.65;94804.94;10532402;28;20024;-74
2021/07/28 21:40:32;;;;;;;21.03;5.60;;;;;;;26.52;47.00;94788.84;10531928;28;20032;-74
2021/07/28 21:50:57;;;;;;;17.80;5.75;;;;;;;26.31;50.24;94783.88;10551301;28;20114;-74
2021/07/28 21:56:09;;;;;;;18.92;6.22;;;;;;;26.22;52.73;94776.66;10573935;28;20558;-74
2021/07/28 22:01:12;;;;;;;17.38;6.25;;;;;;;26.18;55.65;94778.56;10573691;28;20052;-74
2021/07/28 22:06:14;;;;;;;24.92;6.63;;;;;;;25.79;59.65;94783.47;10573809;28;20020;-75
2021/07/28 22:11:17;;;;;;;20.35;6.22;;;;;;;25.87;60.73;94766.72;10573509;28;20031;-74
2021/07/28 22:16:18;;;;;;;23.38;6.97;;;;;;;25.72;58.25;94771.19;10572900;28;20020;-74
2021/07/28 22:21:19;;;;;;;26.48;7.18;;;;;;;25.64;58.35;94777.75;10573039;28;20031;-74
2021/07/28 22:26:19;;;;;;;24.58;6.72;;;;;;;25.61;62.34;94764.75;10572810;28;20044;-74
2021/07/28 22:31:21;;;;;;;28.87;7.37;;;;;;;25.55;62.52;94772.50;10550964;28;20031;-75
2021/07/28 22:36:21;;;;;;;32.08;6.63;;;;;;;25.48;63.81;94777.09;10529969;28;20020;-74
2021/07/28 22:41:21;;;;;;;30.42;7.40;;;;;;;25.44;66.40;94782.56;10530316;28;20042;-74
2021/07/28 22:46:22;;;;;;;22.47;6.80;;;;;;;25.34;63.17;94780.41;10512000;28;20027;-75
2021/07/28 22:56:42;;;;;;;25.85;6.82;;;;;;;24.92;62.33;94765.50;10571628;28;20804;-74
2021/07/28 23:07:05;;;;;;;23.63;6.88;;;;;;;24.85;70.75;94768.94;10571009;28;20486;-75
2021/07/28 23:12:06;;;;;;;24.67;6.72;;;;;;;24.76;66.60;94756.56;10570535;28;20487;-74
2021/07/28 23:17:06;;;;;;;26.73;6.83;;;;;;;24.71;63.98;94757.63;10571240;28;20118;-74
2021/07/28 23:22:06;;;;;;;31.63;7.57;;;;;;;24.75;67.48;94764.00;10570483;28;20717;-74
2021/07/28 23:27:07;;;;;;;31.10;7.27;;;;;;;24.69;65.16;94774.50;10570087;28;20851;-74